sensor_id;sensor_type;location;lat;lon;timestamp;P1;durP1;ratioP1;P2;durP2;ratioP2
58581;SDS011;44361;51.476;5.700;2022-12-10T00:01:49;85.97;;;27.67;;
58581;SDS011;44361;51.476;5.700;2022-12-10T00:04:16;83.72;;;28.60;;
58581;SDS011;44361;51.476;5.700;2022-12-10T00:06:42;90.10;;;31.70;;
58581;SDS011;44361;51.476;5.700;2022-12-10T00:09:11;101.68;;;35.35;;
58581;SDS011;44361;51.476;5.700;2022-12-10T00:11:41;99.40;;;34.97;;
58581;SDS011;44361;51.476;5.700;2022-12-10T00:14:07;99.47;;;32.42;;
58581;SDS011;44361;51.476;5.700;2022-12-10T00:16:33;94.45;;;32.55;;
58581;SDS011;44361;51.476;5.700;2022-12-10T00:18:59;102.78;;;34.85;;
58581;SDS011;44361;51.476;5.700;2022-12-10T00:21:30;96.70;;;34.65;;
58581;SDS011;44361;51.476;5.700;2022-12-10T00:23:58;96.05;;;33.58;;
58581;SDS011;44361;51.476;5.700;2022-12-10T00:26:26;81.82;;;30.30;;
58581;SDS011;44361;51.476;5.700;2022-12-10T00:28:56;87.53;;;29.00;;
58581;SDS011;44361;51.476;5.700;2022-12-10T00:31:23;83.75;;;29.50;;
58581;SDS011;44361;51.476;5.700;2022-12-10T00:33:54;88.40;;;30.55;;
58581;SDS011;44361;51.476;5.700;2022-12-10T00:36:22;91.28;;;30.38;;
58581;SDS011;44361;51.476;5.700;2022-12-10T00:38:50;97.57;;;31.77;;
58581;SDS011;44361;51.476;5.700;2022-12-10T00:41:16;80.90;;;30.17;;
58581;SDS011;44361;51.476;5.700;2022-12-10T00:43:46;90.10;;;31.25;;
58581;SDS011;44361;51.476;5.700;2022-12-10T00:46:15;92.45;;;31.15;;
58581;SDS011;44361;51.476;5.700;2022-12-10T00:48:42;87.38;;;30.38;;
58581;SDS011;44361;51.476;5.700;2022-12-10T00:51:42;92.60;;;29.73;;
58581;SDS011;44361;51.476;5.700;2022-12-10T00:54:02;93.95;;;31.23;;
58581;SDS011;44361;51.476;5.700;2022-12-10T00:56:29;93.80;;;31.00;;
58581;SDS011;44361;51.476;5.700;2022-12-10T00:58:59;88.60;;;29.85;;
58581;SDS011;44361;51.476;5.700;2022-12-10T01:01:28;86.10;;;30.05;;
58581;SDS011;44361;51.476;5.700;2022-12-10T01:04:06;87.55;;;30.30;;
58581;SDS011;44361;51.476;5.700;2022-12-10T01:06:43;94.07;;;30.48;;
58581;SDS011;44361;51.476;5.700;2022-12-10T01:09:11;91.30;;;29.20;;
58581;SDS011;44361;51.476;5.700;2022-12-10T01:11:39;96.95;;;30.05;;
58581;SDS011;44361;51.476;5.700;2022-12-10T01:14:09;79.85;;;28.40;;
58581;SDS011;44361;51.476;5.700;2022-12-10T01:16:37;85.63;;;28.95;;
58581;SDS011;44361;51.476;5.700;2022-12-10T01:19:04;77.82;;;29.88;;
58581;SDS011;44361;51.476;5.700;2022-12-10T01:21:30;92.47;;;29.92;;
58581;SDS011;44361;51.476;5.700;2022-12-10T01:23:57;79.93;;;28.95;;
58581;SDS011;44361;51.476;5.700;2022-12-10T01:26:24;89.57;;;30.15;;
58581;SDS011;44361;51.476;5.700;2022-12-10T01:28:53;87.53;;;30.38;;
58581;SDS011;44361;51.476;5.700;2022-12-10T01:31:21;83.20;;;28.88;;
58581;SDS011;44361;51.476;5.700;2022-12-10T01:36:26;77.10;;;28.58;;
58581;SDS011;44361;51.476;5.700;2022-12-10T01:38:53;79.75;;;28.20;;
58581;SDS011;44361;51.476;5.700;2022-12-10T01:41:24;96.45;;;30.25;;
58581;SDS011;44361;51.476;5.700;2022-12-10T01:44:02;82.72;;;29.40;;
58581;SDS011;44361;51.476;5.700;2022-12-10T01:46:38;102.22;;;30.40;;
58581;SDS011;44361;51.476;5.700;2022-12-10T01:49:10;94.10;;;30.40;;
58581;SDS011;44361;51.476;5.700;2022-12-10T01:51:46;94.20;;;31.42;;
58581;SDS011;44361;51.476;5.700;2022-12-10T01:54:18;90.63;;;29.45;;
58581;SDS011;44361;51.476;5.700;2022-12-10T01:56:47;88.72;;;29.80;;
58581;SDS011;44361;51.476;5.700;2022-12-10T01:59:19;98.22;;;31.90;;
58581;SDS011;44361;51.476;5.700;2022-12-10T02:02:03;100.88;;;31.08;;
58581;SDS011;44361;51.476;5.700;2022-12-10T02:04:55;102.07;;;31.50;;
58581;SDS011;44361;51.476;5.700;2022-12-10T02:07:57;96.20;;;31.35;;
58581;SDS011;44361;51.476;5.700;2022-12-10T02:11:03;92.78;;;30.42;;
58581;SDS011;44361;51.476;5.700;2022-12-10T02:16:31;86.00;;;30.15;;
58581;SDS011;44361;51.476;5.700;2022-12-10T02:19:27;94.60;;;31.13;;
58581;SDS011;44361;51.476;5.700;2022-12-10T02:22:08;99.13;;;31.65;;
58581;SDS011;44361;51.476;5.700;2022-12-10T02:24:36;103.40;;;32.05;;
58581;SDS011;44361;51.476;5.700;2022-12-10T02:27:04;96.38;;;31.52;;
58581;SDS011;44361;51.476;5.700;2022-12-10T02:29:39;104.95;;;33.65;;
58581;SDS011;44361;51.476;5.700;2022-12-10T02:32:12;99.13;;;32.75;;
58581;SDS011;44361;51.476;5.700;2022-12-10T02:34:42;106.18;;;33.00;;
58581;SDS011;44361;51.476;5.700;2022-12-10T02:37:14;111.20;;;36.03;;
58581;SDS011;44361;51.476;5.700;2022-12-10T02:39:46;118.43;;;36.80;;
58581;SDS011;44361;51.476;5.700;2022-12-10T02:42:15;110.13;;;35.08;;
58581;SDS011;44361;51.476;5.700;2022-12-10T02:44:42;110.97;;;34.05;;
58581;SDS011;44361;51.476;5.700;2022-12-10T02:47:10;125.13;;;36.55;;
58581;SDS011;44361;51.476;5.700;2022-12-10T02:49:37;125.65;;;35.33;;
58581;SDS011;44361;51.476;5.700;2022-12-10T02:52:08;113.07;;;34.35;;
58581;SDS011;44361;51.476;5.700;2022-12-10T02:57:14;122.25;;;37.30;;
58581;SDS011;44361;51.476;5.700;2022-12-10T03:05:33;124.45;;;36.95;;
58581;SDS011;44361;51.476;5.700;2022-12-10T03:08:05;135.00;;;38.30;;
58581;SDS011;44361;51.476;5.700;2022-12-10T03:10:45;135.45;;;38.67;;
58581;SDS011;44361;51.476;5.700;2022-12-10T03:13:27;134.48;;;38.22;;
58581;SDS011;44361;51.476;5.700;2022-12-10T03:16:00;134.68;;;39.78;;
58581;SDS011;44361;51.476;5.700;2022-12-10T03:18:27;150.38;;;42.42;;
58581;SDS011;44361;51.476;5.700;2022-12-10T03:20:56;154.25;;;42.13;;
58581;SDS011;44361;51.476;5.700;2022-12-10T03:23:28;147.80;;;40.35;;
58581;SDS011;44361;51.476;5.700;2022-12-10T03:25:55;152.52;;;40.67;;
58581;SDS011;44361;51.476;5.700;2022-12-10T03:28:21;141.02;;;38.17;;
58581;SDS011;44361;51.476;5.700;2022-12-10T03:30:49;148.55;;;40.60;;
58581;SDS011;44361;51.476;5.700;2022-12-10T03:33:17;138.70;;;39.65;;
58581;SDS011;44361;51.476;5.700;2022-12-10T03:35:43;155.20;;;40.50;;
58581;SDS011;44361;51.476;5.700;2022-12-10T03:38:10;142.45;;;40.70;;
58581;SDS011;44361;51.476;5.700;2022-12-10T03:40:36;141.52;;;39.30;;
58581;SDS011;44361;51.476;5.700;2022-12-10T03:43:02;149.38;;;41.50;;
58581;SDS011;44361;51.476;5.700;2022-12-10T03:45:27;149.75;;;40.42;;
58581;SDS011;44361;51.476;5.700;2022-12-10T03:47:53;159.07;;;40.97;;
58581;SDS011;44361;51.476;5.700;2022-12-10T03:50:19;142.02;;;39.45;;
58581;SDS011;44361;51.476;5.700;2022-12-10T03:52:44;163.82;;;43.55;;
58581;SDS011;44361;51.476;5.700;2022-12-10T03:55:11;168.05;;;42.42;;
58581;SDS011;44361;51.476;5.700;2022-12-10T03:57:36;152.95;;;41.47;;
58581;SDS011;44361;51.476;5.700;2022-12-10T04:00:03;141.95;;;40.13;;
58581;SDS011;44361;51.476;5.700;2022-12-10T04:02:30;148.23;;;41.22;;
58581;SDS011;44361;51.476;5.700;2022-12-10T04:04:55;139.30;;;38.63;;
58581;SDS011;44361;51.476;5.700;2022-12-10T04:07:21;143.35;;;39.80;;
58581;SDS011;44361;51.476;5.700;2022-12-10T04:09:46;146.68;;;38.70;;
58581;SDS011;44361;51.476;5.700;2022-12-10T04:12:12;133.60;;;40.28;;
58581;SDS011;44361;51.476;5.700;2022-12-10T04:14:37;142.82;;;39.15;;
58581;SDS011;44361;51.476;5.700;2022-12-10T04:17:22;142.50;;;39.00;;
58581;SDS011;44361;51.476;5.700;2022-12-10T04:19:47;148.27;;;41.25;;
58581;SDS011;44361;51.476;5.700;2022-12-10T04:22:13;138.98;;;39.53;;
58581;SDS011;44361;51.476;5.700;2022-12-10T04:24:57;138.90;;;37.25;;
58581;SDS011;44361;51.476;5.700;2022-12-10T04:27:51;148.48;;;38.92;;
58581;SDS011;44361;51.476;5.700;2022-12-10T04:30:17;130.90;;;37.75;;
58581;SDS011;44361;51.476;5.700;2022-12-10T04:32:43;147.05;;;41.15;;
58581;SDS011;44361;51.476;5.700;2022-12-10T04:35:09;138.93;;;41.10;;
58581;SDS011;44361;51.476;5.700;2022-12-10T04:37:35;144.25;;;39.55;;
58581;SDS011;44361;51.476;5.700;2022-12-10T04:40:02;131.45;;;39.50;;
58581;SDS011;44361;51.476;5.700;2022-12-10T04:42:30;135.68;;;39.55;;
58581;SDS011;44361;51.476;5.700;2022-12-10T04:44:56;142.10;;;39.75;;
58581;SDS011;44361;51.476;5.700;2022-12-10T04:47:22;137.90;;;39.50;;
58581;SDS011;44361;51.476;5.700;2022-12-10T04:49:48;121.57;;;39.22;;
58581;SDS011;44361;51.476;5.700;2022-12-10T04:52:14;128.48;;;38.70;;
58581;SDS011;44361;51.476;5.700;2022-12-10T04:54:41;122.65;;;36.85;;
58581;SDS011;44361;51.476;5.700;2022-12-10T04:57:07;135.68;;;38.80;;
58581;SDS011;44361;51.476;5.700;2022-12-10T04:59:33;142.80;;;39.08;;
58581;SDS011;44361;51.476;5.700;2022-12-10T05:01:59;131.48;;;37.63;;
58581;SDS011;44361;51.476;5.700;2022-12-10T05:04:26;143.50;;;39.33;;
58581;SDS011;44361;51.476;5.700;2022-12-10T05:06:52;140.77;;;39.58;;
58581;SDS011;44361;51.476;5.700;2022-12-10T05:09:18;142.38;;;39.63;;
58581;SDS011;44361;51.476;5.700;2022-12-10T05:11:47;124.70;;;38.38;;
58581;SDS011;44361;51.476;5.700;2022-12-10T05:14:13;131.30;;;37.83;;
58581;SDS011;44361;51.476;5.700;2022-12-10T05:16:40;148.90;;;39.53;;
58581;SDS011;44361;51.476;5.700;2022-12-10T05:19:06;146.80;;;39.13;;
58581;SDS011;44361;51.476;5.700;2022-12-10T05:21:33;124.03;;;35.00;;
58581;SDS011;44361;51.476;5.700;2022-12-10T05:24:18;130.23;;;37.83;;
58581;SDS011;44361;51.476;5.700;2022-12-10T05:26:44;134.80;;;35.47;;
58581;SDS011;44361;51.476;5.700;2022-12-10T05:29:11;138.05;;;36.20;;
58581;SDS011;44361;51.476;5.700;2022-12-10T05:31:39;130.35;;;36.83;;
58581;SDS011;44361;51.476;5.700;2022-12-10T05:34:04;134.05;;;36.95;;
58581;SDS011;44361;51.476;5.700;2022-12-10T05:36:33;136.80;;;37.65;;
58581;SDS011;44361;51.476;5.700;2022-12-10T05:38:59;141.55;;;39.85;;
58581;SDS011;44361;51.476;5.700;2022-12-10T05:41:26;133.75;;;38.65;;
58581;SDS011;44361;51.476;5.700;2022-12-10T05:43:53;127.72;;;36.63;;
58581;SDS011;44361;51.476;5.700;2022-12-10T05:46:23;142.52;;;38.42;;
58581;SDS011;44361;51.476;5.700;2022-12-10T05:48:51;135.25;;;38.15;;
58581;SDS011;44361;51.476;5.700;2022-12-10T05:51:20;138.70;;;37.25;;
58581;SDS011;44361;51.476;5.700;2022-12-10T05:53:50;127.82;;;36.70;;
58581;SDS011;44361;51.476;5.700;2022-12-10T05:56:18;126.65;;;38.80;;
58581;SDS011;44361;51.476;5.700;2022-12-10T05:58:46;134.40;;;40.08;;
58581;SDS011;44361;51.476;5.700;2022-12-10T06:01:14;133.48;;;37.50;;
58581;SDS011;44361;51.476;5.700;2022-12-10T06:03:45;131.00;;;37.13;;
58581;SDS011;44361;51.476;5.700;2022-12-10T06:06:11;145.70;;;39.42;;
58581;SDS011;44361;51.476;5.700;2022-12-10T06:08:38;125.45;;;36.78;;
58581;SDS011;44361;51.476;5.700;2022-12-10T06:11:05;142.20;;;37.92;;
58581;SDS011;44361;51.476;5.700;2022-12-10T06:13:31;126.57;;;37.25;;
58581;SDS011;44361;51.476;5.700;2022-12-10T06:15:57;119.38;;;36.70;;
58581;SDS011;44361;51.476;5.700;2022-12-10T06:18:23;131.55;;;39.00;;
58581;SDS011;44361;51.476;5.700;2022-12-10T06:20:49;129.32;;;35.95;;
58581;SDS011;44361;51.476;5.700;2022-12-10T06:23:15;128.77;;;36.33;;
58581;SDS011;44361;51.476;5.700;2022-12-10T06:25:41;124.63;;;37.67;;
58581;SDS011;44361;51.476;5.700;2022-12-10T06:28:08;121.18;;;36.60;;
58581;SDS011;44361;51.476;5.700;2022-12-10T06:30:35;131.90;;;37.55;;
58581;SDS011;44361;51.476;5.700;2022-12-10T06:33:00;131.20;;;37.95;;
58581;SDS011;44361;51.476;5.700;2022-12-10T06:35:26;125.13;;;35.17;;
58581;SDS011;44361;51.476;5.700;2022-12-10T06:37:52;120.28;;;34.58;;
58581;SDS011;44361;51.476;5.700;2022-12-10T06:40:17;114.22;;;34.50;;
58581;SDS011;44361;51.476;5.700;2022-12-10T06:42:43;121.00;;;32.97;;
58581;SDS011;44361;51.476;5.700;2022-12-10T06:45:09;124.15;;;33.88;;
58581;SDS011;44361;51.476;5.700;2022-12-10T06:47:35;118.43;;;31.45;;
58581;SDS011;44361;51.476;5.700;2022-12-10T06:50:00;109.90;;;31.75;;
58581;SDS011;44361;51.476;5.700;2022-12-10T06:52:27;120.22;;;32.13;;
58581;SDS011;44361;51.476;5.700;2022-12-10T06:54:53;100.75;;;30.77;;
58581;SDS011;44361;51.476;5.700;2022-12-10T06:57:20;110.15;;;31.23;;
58581;SDS011;44361;51.476;5.700;2022-12-10T06:59:46;104.40;;;31.52;;
58581;SDS011;44361;51.476;5.700;2022-12-10T07:02:12;108.13;;;30.42;;
58581;SDS011;44361;51.476;5.700;2022-12-10T07:04:37;103.40;;;29.92;;
58581;SDS011;44361;51.476;5.700;2022-12-10T07:07:04;109.75;;;30.45;;
58581;SDS011;44361;51.476;5.700;2022-12-10T07:09:30;121.90;;;31.17;;
58581;SDS011;44361;51.476;5.700;2022-12-10T07:11:57;105.13;;;28.90;;
58581;SDS011;44361;51.476;5.700;2022-12-10T07:14:23;109.53;;;31.73;;
58581;SDS011;44361;51.476;5.700;2022-12-10T07:16:50;93.32;;;29.73;;
58581;SDS011;44361;51.476;5.700;2022-12-10T07:19:15;96.22;;;29.35;;
58581;SDS011;44361;51.476;5.700;2022-12-10T07:21:43;97.80;;;29.73;;
58581;SDS011;44361;51.476;5.700;2022-12-10T07:24:10;99.15;;;30.08;;
58581;SDS011;44361;51.476;5.700;2022-12-10T07:26:38;101.72;;;31.92;;
58581;SDS011;44361;51.476;5.700;2022-12-10T07:29:09;83.93;;;26.98;;
58581;SDS011;44361;51.476;5.700;2022-12-10T07:31:41;117.30;;;31.67;;
58581;SDS011;44361;51.476;5.700;2022-12-10T07:34:07;100.30;;;29.20;;
58581;SDS011;44361;51.476;5.700;2022-12-10T07:36:34;104.95;;;31.13;;
58581;SDS011;44361;51.476;5.700;2022-12-10T07:38:59;104.45;;;30.92;;
58581;SDS011;44361;51.476;5.700;2022-12-10T07:41:25;119.20;;;32.13;;
58581;SDS011;44361;51.476;5.700;2022-12-10T07:43:51;104.18;;;29.88;;
58581;SDS011;44361;51.476;5.700;2022-12-10T07:46:19;91.50;;;29.70;;
58581;SDS011;44361;51.476;5.700;2022-12-10T07:48:46;111.28;;;30.48;;
58581;SDS011;44361;51.476;5.700;2022-12-10T07:51:14;104.72;;;31.45;;
58581;SDS011;44361;51.476;5.700;2022-12-10T07:53:41;99.72;;;28.00;;
58581;SDS011;44361;51.476;5.700;2022-12-10T07:56:09;104.68;;;29.92;;
58581;SDS011;44361;51.476;5.700;2022-12-10T07:58:36;98.97;;;27.77;;
58581;SDS011;44361;51.476;5.700;2022-12-10T08:01:07;79.57;;;27.75;;
58581;SDS011;44361;51.476;5.700;2022-12-10T08:03:34;99.95;;;29.45;;
58581;SDS011;44361;51.476;5.700;2022-12-10T08:06:01;98.13;;;28.77;;
58581;SDS011;44361;51.476;5.700;2022-12-10T08:08:47;99.10;;;29.55;;
58581;SDS011;44361;51.476;5.700;2022-12-10T08:11:14;96.68;;;30.38;;
58581;SDS011;44361;51.476;5.700;2022-12-10T08:13:43;99.03;;;30.15;;
58581;SDS011;44361;51.476;5.700;2022-12-10T08:16:12;95.97;;;29.25;;
58581;SDS011;44361;51.476;5.700;2022-12-10T08:18:39;104.07;;;29.33;;
58581;SDS011;44361;51.476;5.700;2022-12-10T08:21:07;90.22;;;28.90;;
58581;SDS011;44361;51.476;5.700;2022-12-10T08:23:36;99.18;;;29.38;;
58581;SDS011;44361;51.476;5.700;2022-12-10T08:26:03;100.85;;;28.83;;
58581;SDS011;44361;51.476;5.700;2022-12-10T08:28:34;100.03;;;28.20;;
58581;SDS011;44361;51.476;5.700;2022-12-10T08:31:00;96.30;;;29.05;;
58581;SDS011;44361;51.476;5.700;2022-12-10T08:33:26;102.20;;;29.73;;
58581;SDS011;44361;51.476;5.700;2022-12-10T08:35:57;105.05;;;28.33;;
58581;SDS011;44361;51.476;5.700;2022-12-10T08:38:25;97.60;;;29.50;;
58581;SDS011;44361;51.476;5.700;2022-12-10T08:40:51;98.45;;;29.50;;
58581;SDS011;44361;51.476;5.700;2022-12-10T08:43:17;105.28;;;29.52;;
58581;SDS011;44361;51.476;5.700;2022-12-10T08:45:47;97.15;;;29.10;;
58581;SDS011;44361;51.476;5.700;2022-12-10T08:48:12;112.90;;;31.60;;
58581;SDS011;44361;51.476;5.700;2022-12-10T08:50:39;83.30;;;27.67;;
58581;SDS011;44361;51.476;5.700;2022-12-10T08:53:04;104.65;;;29.10;;
58581;SDS011;44361;51.476;5.700;2022-12-10T08:55:30;110.13;;;30.25;;
58581;SDS011;44361;51.476;5.700;2022-12-10T08:57:57;106.75;;;30.15;;
58581;SDS011;44361;51.476;5.700;2022-12-10T09:00:23;108.85;;;31.65;;
58581;SDS011;44361;51.476;5.700;2022-12-10T09:02:51;115.95;;;32.17;;
58581;SDS011;44361;51.476;5.700;2022-12-10T09:05:17;106.50;;;31.10;;
58581;SDS011;44361;51.476;5.700;2022-12-10T09:07:42;105.03;;;30.13;;
58581;SDS011;44361;51.476;5.700;2022-12-10T09:10:09;112.72;;;31.42;;
58581;SDS011;44361;51.476;5.700;2022-12-10T09:12:36;111.40;;;30.60;;
58581;SDS011;44361;51.476;5.700;2022-12-10T09:15:02;132.15;;;32.05;;
58581;SDS011;44361;51.476;5.700;2022-12-10T09:17:30;117.78;;;31.83;;
58581;SDS011;44361;51.476;5.700;2022-12-10T09:19:56;122.72;;;30.65;;
58581;SDS011;44361;51.476;5.700;2022-12-10T09:22:22;124.78;;;32.25;;
58581;SDS011;44361;51.476;5.700;2022-12-10T09:24:49;109.63;;;29.83;;
58581;SDS011;44361;51.476;5.700;2022-12-10T09:27:15;111.72;;;31.92;;
58581;SDS011;44361;51.476;5.700;2022-12-10T09:29:40;116.53;;;30.58;;
58581;SDS011;44361;51.476;5.700;2022-12-10T09:32:06;112.03;;;31.67;;
58581;SDS011;44361;51.476;5.700;2022-12-10T09:34:32;130.60;;;31.95;;
58581;SDS011;44361;51.476;5.700;2022-12-10T09:36:57;112.93;;;31.08;;
58581;SDS011;44361;51.476;5.700;2022-12-10T09:39:23;104.18;;;29.75;;
58581;SDS011;44361;51.476;5.700;2022-12-10T09:44:39;110.80;;;30.52;;
58581;SDS011;44361;51.476;5.700;2022-12-10T09:47:16;109.72;;;32.03;;
58581;SDS011;44361;51.476;5.700;2022-12-10T09:49:53;110.15;;;30.33;;
58581;SDS011;44361;51.476;5.700;2022-12-10T09:52:43;105.78;;;29.77;;
58581;SDS011;44361;51.476;5.700;2022-12-10T09:55:14;110.93;;;30.33;;
58581;SDS011;44361;51.476;5.700;2022-12-10T09:57:50;110.72;;;28.77;;
58581;SDS011;44361;51.476;5.700;2022-12-10T10:02:46;103.60;;;28.65;;
58581;SDS011;44361;51.476;5.700;2022-12-10T10:05:20;109.72;;;28.98;;
58581;SDS011;44361;51.476;5.700;2022-12-10T10:07:59;114.13;;;29.25;;
58581;SDS011;44361;51.476;5.700;2022-12-10T10:10:37;114.97;;;30.15;;
58581;SDS011;44361;51.476;5.700;2022-12-10T10:13:13;120.30;;;30.95;;
58581;SDS011;44361;51.476;5.700;2022-12-10T10:15:47;104.97;;;31.15;;
58581;SDS011;44361;51.476;5.700;2022-12-10T10:20:43;108.85;;;30.55;;
58581;SDS011;44361;51.476;5.700;2022-12-10T10:23:11;114.65;;;30.63;;
58581;SDS011;44361;51.476;5.700;2022-12-10T10:25:40;101.55;;;28.83;;
58581;SDS011;44361;51.476;5.700;2022-12-10T10:28:10;98.10;;;29.05;;
58581;SDS011;44361;51.476;5.700;2022-12-10T10:30:39;101.70;;;28.92;;
58581;SDS011;44361;51.476;5.700;2022-12-10T10:33:09;110.13;;;28.58;;
58581;SDS011;44361;51.476;5.700;2022-12-10T10:35:49;98.07;;;27.75;;
58581;SDS011;44361;51.476;5.700;2022-12-10T10:38:23;99.45;;;27.20;;
58581;SDS011;44361;51.476;5.700;2022-12-10T10:41:01;94.88;;;27.20;;
58581;SDS011;44361;51.476;5.700;2022-12-10T10:43:33;91.05;;;27.80;;
58581;SDS011;44361;51.476;5.700;2022-12-10T10:46:10;108.80;;;29.35;;
58581;SDS011;44361;51.476;5.700;2022-12-10T10:48:41;97.68;;;27.10;;
58581;SDS011;44361;51.476;5.700;2022-12-10T10:51:08;93.63;;;26.73;;
58581;SDS011;44361;51.476;5.700;2022-12-10T10:53:47;104.82;;;29.00;;
58581;SDS011;44361;51.476;5.700;2022-12-10T10:56:18;110.72;;;29.35;;
58581;SDS011;44361;51.476;5.700;2022-12-10T11:04:15;97.47;;;26.45;;
58581;SDS011;44361;51.476;5.700;2022-12-10T11:06:43;100.15;;;26.27;;
58581;SDS011;44361;51.476;5.700;2022-12-10T11:09:15;88.22;;;26.80;;
58581;SDS011;44361;51.476;5.700;2022-12-10T11:11:50;92.88;;;26.95;;
58581;SDS011;44361;51.476;5.700;2022-12-10T11:14:23;83.35;;;25.15;;
58581;SDS011;44361;51.476;5.700;2022-12-10T11:17:02;88.55;;;24.95;;
58581;SDS011;44361;51.476;5.700;2022-12-10T11:19:59;75.70;;;23.15;;
58581;SDS011;44361;51.476;5.700;2022-12-10T11:22:33;81.57;;;23.98;;
58581;SDS011;44361;51.476;5.700;2022-12-10T11:24:59;87.68;;;25.27;;
58581;SDS011;44361;51.476;5.700;2022-12-10T11:30:07;83.22;;;25.40;;
58581;SDS011;44361;51.476;5.700;2022-12-10T11:32:50;85.38;;;25.45;;
58581;SDS011;44361;51.476;5.700;2022-12-10T11:35:45;80.10;;;24.85;;
58581;SDS011;44361;51.476;5.700;2022-12-10T11:38:57;90.95;;;25.40;;
58581;SDS011;44361;51.476;5.700;2022-12-10T11:41:49;83.82;;;25.63;;
58581;SDS011;44361;51.476;5.700;2022-12-10T11:44:49;76.93;;;22.10;;
58581;SDS011;44361;51.476;5.700;2022-12-10T11:47:56;68.10;;;20.90;;
58581;SDS011;44361;51.476;5.700;2022-12-10T11:53:55;83.30;;;24.38;;
58581;SDS011;44361;51.476;5.700;2022-12-10T11:56:45;88.38;;;25.42;;
58581;SDS011;44361;51.476;5.700;2022-12-10T11:59:20;83.30;;;25.63;;
58581;SDS011;44361;51.476;5.700;2022-12-10T12:01:59;75.70;;;25.17;;
58581;SDS011;44361;51.476;5.700;2022-12-10T12:07:35;83.55;;;25.05;;
58581;SDS011;44361;51.476;5.700;2022-12-10T12:13:08;84.28;;;24.70;;
58581;SDS011;44361;51.476;5.700;2022-12-10T12:15:45;80.18;;;24.45;;
58581;SDS011;44361;51.476;5.700;2022-12-10T12:21:02;73.22;;;23.75;;
58581;SDS011;44361;51.476;5.700;2022-12-10T12:31:54;69.57;;;23.27;;
58581;SDS011;44361;51.476;5.700;2022-12-10T12:34:33;71.90;;;23.35;;
58581;SDS011;44361;51.476;5.700;2022-12-10T12:37:28;66.78;;;22.45;;
58581;SDS011;44361;51.476;5.700;2022-12-10T12:40:13;76.57;;;22.83;;
58581;SDS011;44361;51.476;5.700;2022-12-10T12:43:04;77.78;;;23.08;;
58581;SDS011;44361;51.476;5.700;2022-12-10T12:45:48;82.70;;;24.52;;
58581;SDS011;44361;51.476;5.700;2022-12-10T12:48:22;81.68;;;25.05;;
58581;SDS011;44361;51.476;5.700;2022-12-10T12:51:00;90.30;;;24.75;;
58581;SDS011;44361;51.476;5.700;2022-12-10T12:53:49;83.20;;;24.88;;
58581;SDS011;44361;51.476;5.700;2022-12-10T13:01:57;84.65;;;25.45;;
58581;SDS011;44361;51.476;5.700;2022-12-10T13:04:33;83.03;;;25.40;;
58581;SDS011;44361;51.476;5.700;2022-12-10T13:09:47;88.80;;;26.17;;
58581;SDS011;44361;51.476;5.700;2022-12-10T13:12:32;80.45;;;25.50;;
58581;SDS011;44361;51.476;5.700;2022-12-10T13:18:04;75.07;;;24.50;;
58581;SDS011;44361;51.476;5.700;2022-12-10T13:31:06;82.30;;;25.02;;
58581;SDS011;44361;51.476;5.700;2022-12-10T13:36:20;72.22;;;24.58;;
58581;SDS011;44361;51.476;5.700;2022-12-10T13:39:11;82.00;;;25.33;;
58581;SDS011;44361;51.476;5.700;2022-12-10T14:01:34;83.13;;;26.08;;
58581;SDS011;44361;51.476;5.700;2022-12-10T14:04:34;85.13;;;24.88;;
58581;SDS011;44361;51.476;5.700;2022-12-10T14:07:13;81.95;;;26.02;;
58581;SDS011;44361;51.476;5.700;2022-12-10T14:09:45;87.78;;;26.05;;
58581;SDS011;44361;51.476;5.700;2022-12-10T14:12:15;85.70;;;25.63;;
58581;SDS011;44361;51.476;5.700;2022-12-10T14:14:47;74.13;;;23.23;;
58581;SDS011;44361;51.476;5.700;2022-12-10T14:17:22;81.32;;;24.15;;
58581;SDS011;44361;51.476;5.700;2022-12-10T14:19:57;79.82;;;24.65;;
58581;SDS011;44361;51.476;5.700;2022-12-10T14:22:30;91.43;;;25.33;;
58581;SDS011;44361;51.476;5.700;2022-12-10T14:25:00;88.45;;;27.65;;
58581;SDS011;44361;51.476;5.700;2022-12-10T14:27:28;80.18;;;26.08;;
58581;SDS011;44361;51.476;5.700;2022-12-10T14:29:58;98.90;;;26.88;;
58581;SDS011;44361;51.476;5.700;2022-12-10T14:32:34;94.45;;;27.88;;
58581;SDS011;44361;51.476;5.700;2022-12-10T14:37:29;92.45;;;25.10;;
58581;SDS011;44361;51.476;5.700;2022-12-10T14:39:59;90.47;;;26.02;;
58581;SDS011;44361;51.476;5.700;2022-12-10T14:42:30;93.70;;;27.08;;
58581;SDS011;44361;51.476;5.700;2022-12-10T14:44:58;102.15;;;27.63;;
58581;SDS011;44361;51.476;5.700;2022-12-10T14:47:27;81.40;;;25.30;;
58581;SDS011;44361;51.476;5.700;2022-12-10T14:50:00;97.82;;;27.55;;
58581;SDS011;44361;51.476;5.700;2022-12-10T14:52:38;90.82;;;25.40;;
58581;SDS011;44361;51.476;5.700;2022-12-10T14:55:13;93.65;;;27.23;;
58581;SDS011;44361;51.476;5.700;2022-12-10T14:57:44;79.28;;;24.75;;
58581;SDS011;44361;51.476;5.700;2022-12-10T15:00:22;88.10;;;26.13;;
58581;SDS011;44361;51.476;5.700;2022-12-10T15:02:51;83.28;;;24.30;;
58581;SDS011;44361;51.476;5.700;2022-12-10T15:05:27;85.57;;;24.23;;
58581;SDS011;44361;51.476;5.700;2022-12-10T15:08:00;74.35;;;23.63;;
58581;SDS011;44361;51.476;5.700;2022-12-10T15:10:44;85.93;;;24.90;;
58581;SDS011;44361;51.476;5.700;2022-12-10T15:13:19;79.38;;;22.75;;
58581;SDS011;44361;51.476;5.700;2022-12-10T15:16:03;73.40;;;21.42;;
58581;SDS011;44361;51.476;5.700;2022-12-10T15:18:34;72.90;;;21.85;;
58581;SDS011;44361;51.476;5.700;2022-12-10T15:21:24;82.65;;;23.65;;
58581;SDS011;44361;51.476;5.700;2022-12-10T15:23:49;104.90;;;25.17;;
58581;SDS011;44361;51.476;5.700;2022-12-10T15:26:32;92.53;;;25.88;;
58581;SDS011;44361;51.476;5.700;2022-12-10T15:29:15;84.63;;;25.55;;
58581;SDS011;44361;51.476;5.700;2022-12-10T15:31:46;99.07;;;24.70;;
58581;SDS011;44361;51.476;5.700;2022-12-10T15:34:13;97.57;;;27.05;;
58581;SDS011;44361;51.476;5.700;2022-12-10T15:36:41;108.80;;;30.23;;
58581;SDS011;44361;51.476;5.700;2022-12-10T15:39:18;85.15;;;25.25;;
58581;SDS011;44361;51.476;5.700;2022-12-10T15:41:49;102.32;;;25.77;;
58581;SDS011;44361;51.476;5.700;2022-12-10T15:44:24;104.90;;;27.33;;
58581;SDS011;44361;51.476;5.700;2022-12-10T15:47:17;110.30;;;26.05;;
58581;SDS011;44361;51.476;5.700;2022-12-10T15:49:47;92.43;;;25.70;;
58581;SDS011;44361;51.476;5.700;2022-12-10T15:52:21;99.18;;;26.02;;
58581;SDS011;44361;51.476;5.700;2022-12-10T15:54:49;94.60;;;24.98;;
58581;SDS011;44361;51.476;5.700;2022-12-10T15:57:18;88.32;;;25.50;;
58581;SDS011;44361;51.476;5.700;2022-12-10T15:59:46;99.82;;;26.35;;
58581;SDS011;44361;51.476;5.700;2022-12-10T16:05:10;86.97;;;25.35;;
58581;SDS011;44361;51.476;5.700;2022-12-10T16:07:36;90.85;;;24.92;;
58581;SDS011;44361;51.476;5.700;2022-12-10T16:10:02;86.95;;;23.58;;
58581;SDS011;44361;51.476;5.700;2022-12-10T16:12:29;90.38;;;24.35;;
58581;SDS011;44361;51.476;5.700;2022-12-10T16:14:56;84.40;;;23.50;;
58581;SDS011;44361;51.476;5.700;2022-12-10T16:17:26;90.28;;;24.35;;
58581;SDS011;44361;51.476;5.700;2022-12-10T16:19:56;80.28;;;24.27;;